sensor_id;sensor_type;location;lat;lon;timestamp;P1;durP1;ratioP1;P2;durP2;ratioP2
4553;SDS011;2289;48.316;15.174;2022-08-27T00:00:46;19.63;;;11.17;;
4553;SDS011;2289;48.316;15.174;2022-08-27T00:03:15;15.43;;;9.50;;
4553;SDS011;2289;48.316;15.174;2022-08-27T00:05:44;16.90;;;11.83;;
4553;SDS011;2289;48.316;15.174;2022-08-27T00:08:14;12.70;;;9.80;;
4553;SDS011;2289;48.316;15.174;2022-08-27T00:10:42;12.67;;;9.77;;
4553;SDS011;2289;48.316;15.174;2022-08-27T00:13:12;14.27;;;10.57;;
4553;SDS011;2289;48.316;15.174;2022-08-27T00:15:42;13.20;;;10.33;;
4553;SDS011;2289;48.316;15.174;2022-08-27T00:18:11;11.63;;;9.07;;
4553;SDS011;2289;48.316;15.174;2022-08-27T00:20:39;11.80;;;9.40;;
4553;SDS011;2289;48.316;15.174;2022-08-27T00:23:09;18.40;;;11.47;;
4553;SDS011;2289;48.316;15.174;2022-08-27T00:25:38;16.63;;;11.20;;
4553;SDS011;2289;48.316;15.174;2022-08-27T00:28:06;17.50;;;14.10;;
4553;SDS011;2289;48.316;15.174;2022-08-27T00:30:37;13.70;;;10.47;;
4553;SDS011;2289;48.316;15.174;2022-08-27T00:33:05;15.37;;;10.47;;
4553;SDS011;2289;48.316;15.174;2022-08-27T00:35:34;16.67;;;11.73;;
4553;SDS011;2289;48.316;15.174;2022-08-27T00:38:03;15.90;;;10.50;;
4553;SDS011;2289;48.316;15.174;2022-08-27T00:40:33;11.93;;;10.60;;
4553;SDS011;2289;48.316;15.174;2022-08-27T00:43:01;12.50;;;10.00;;
4553;SDS011;2289;48.316;15.174;2022-08-27T00:45:31;17.87;;;11.57;;
4553;SDS011;2289;48.316;15.174;2022-08-27T00:48:06;14.00;;;10.23;;
4553;SDS011;2289;48.316;15.174;2022-08-27T00:50:37;12.90;;;10.60;;
4553;SDS011;2289;48.316;15.174;2022-08-27T00:53:09;10.77;;;9.67;;
4553;SDS011;2289;48.316;15.174;2022-08-27T00:55:42;12.03;;;9.83;;
4553;SDS011;2289;48.316;15.174;2022-08-27T00:58:14;11.87;;;9.60;;
4553;SDS011;2289;48.316;15.174;2022-08-27T01:00:50;12.20;;;10.67;;
4553;SDS011;2289;48.316;15.174;2022-08-27T01:03:18;14.93;;;10.40;;
4553;SDS011;2289;48.316;15.174;2022-08-27T01:05:47;16.60;;;10.00;;
4553;SDS011;2289;48.316;15.174;2022-08-27T01:08:17;18.13;;;11.80;;
4553;SDS011;2289;48.316;15.174;2022-08-27T01:10:47;10.37;;;9.07;;
4553;SDS011;2289;48.316;15.174;2022-08-27T01:13:16;11.53;;;9.10;;
4553;SDS011;2289;48.316;15.174;2022-08-27T01:16:07;9.00;;;8.10;;
4553;SDS011;2289;48.316;15.174;2022-08-27T01:18:37;10.47;;;9.37;;
4553;SDS011;2289;48.316;15.174;2022-08-27T01:21:11;11.30;;;9.40;;
4553;SDS011;2289;48.316;15.174;2022-08-27T01:23:47;11.20;;;10.07;;
4553;SDS011;2289;48.316;15.174;2022-08-27T01:26:21;13.27;;;9.30;;
4553;SDS011;2289;48.316;15.174;2022-08-27T01:28:50;16.50;;;10.50;;
4553;SDS011;2289;48.316;15.174;2022-08-27T01:31:19;10.73;;;9.63;;
4553;SDS011;2289;48.316;15.174;2022-08-27T01:33:54;12.43;;;9.37;;
4553;SDS011;2289;48.316;15.174;2022-08-27T01:36:24;11.80;;;8.70;;
4553;SDS011;2289;48.316;15.174;2022-08-27T01:38:53;13.37;;;9.90;;
4553;SDS011;2289;48.316;15.174;2022-08-27T01:41:24;11.97;;;8.80;;
4553;SDS011;2289;48.316;15.174;2022-08-27T01:43:52;11.47;;;8.37;;
4553;SDS011;2289;48.316;15.174;2022-08-27T01:46:22;11.93;;;10.40;;
4553;SDS011;2289;48.316;15.174;2022-08-27T01:48:52;9.90;;;7.90;;
4553;SDS011;2289;48.316;15.174;2022-08-27T01:51:22;10.20;;;9.10;;
4553;SDS011;2289;48.316;15.174;2022-08-27T01:53:50;11.53;;;8.80;;
4553;SDS011;2289;48.316;15.174;2022-08-27T01:56:18;22.47;;;10.20;;
4553;SDS011;2289;48.316;15.174;2022-08-27T01:58:49;15.30;;;8.90;;
4553;SDS011;2289;48.316;15.174;2022-08-27T02:01:17;15.90;;;9.30;;
4553;SDS011;2289;48.316;15.174;2022-08-27T02:03:46;9.10;;;8.13;;
4553;SDS011;2289;48.316;15.174;2022-08-27T02:06:15;10.03;;;8.80;;
4553;SDS011;2289;48.316;15.174;2022-08-27T02:08:43;9.20;;;6.87;;
4553;SDS011;2289;48.316;15.174;2022-08-27T02:11:12;8.97;;;8.07;;
4553;SDS011;2289;48.316;15.174;2022-08-27T02:13:40;10.13;;;8.93;;
4553;SDS011;2289;48.316;15.174;2022-08-27T02:16:10;19.23;;;11.10;;
4553;SDS011;2289;48.316;15.174;2022-08-27T02:18:40;12.87;;;9.00;;
4553;SDS011;2289;48.316;15.174;2022-08-27T02:21:08;14.93;;;8.13;;
4553;SDS011;2289;48.316;15.174;2022-08-27T02:23:38;9.23;;;8.13;;
4553;SDS011;2289;48.316;15.174;2022-08-27T02:26:07;11.03;;;7.50;;
4553;SDS011;2289;48.316;15.174;2022-08-27T02:28:36;15.37;;;10.30;;
4553;SDS011;2289;48.316;15.174;2022-08-27T02:31:04;18.67;;;8.30;;
4553;SDS011;2289;48.316;15.174;2022-08-27T02:33:34;17.60;;;9.73;;
4553;SDS011;2289;48.316;15.174;2022-08-27T02:36:03;16.87;;;10.83;;
4553;SDS011;2289;48.316;15.174;2022-08-27T02:38:31;13.27;;;8.30;;
4553;SDS011;2289;48.316;15.174;2022-08-27T02:41:00;11.23;;;9.37;;
4553;SDS011;2289;48.316;15.174;2022-08-27T02:43:29;16.47;;;7.80;;
4553;SDS011;2289;48.316;15.174;2022-08-27T02:45:57;8.20;;;7.47;;
4553;SDS011;2289;48.316;15.174;2022-08-27T02:48:27;11.10;;;8.70;;
4553;SDS011;2289;48.316;15.174;2022-08-27T02:53:42;11.77;;;9.33;;
4553;SDS011;2289;48.316;15.174;2022-08-27T02:56:11;13.77;;;9.20;;
4553;SDS011;2289;48.316;15.174;2022-08-27T02:58:47;14.13;;;9.13;;
4553;SDS011;2289;48.316;15.174;2022-08-27T03:01:15;11.20;;;9.30;;
4553;SDS011;2289;48.316;15.174;2022-08-27T03:03:44;16.17;;;9.53;;
4553;SDS011;2289;48.316;15.174;2022-08-27T03:06:12;9.33;;;8.27;;
4553;SDS011;2289;48.316;15.174;2022-08-27T03:08:42;15.93;;;8.80;;
4553;SDS011;2289;48.316;15.174;2022-08-27T03:11:18;9.07;;;8.10;;
4553;SDS011;2289;48.316;15.174;2022-08-27T03:13:48;10.67;;;8.23;;
4553;SDS011;2289;48.316;15.174;2022-08-27T03:16:16;11.00;;;8.57;;
4553;SDS011;2289;48.316;15.174;2022-08-27T03:18:45;9.37;;;8.33;;
4553;SDS011;2289;48.316;15.174;2022-08-27T03:21:14;10.07;;;8.17;;
4553;SDS011;2289;48.316;15.174;2022-08-27T03:23:46;12.20;;;8.10;;
4553;SDS011;2289;48.316;15.174;2022-08-27T03:26:15;11.47;;;8.63;;
4553;SDS011;2289;48.316;15.174;2022-08-27T03:28:45;12.10;;;9.20;;
4553;SDS011;2289;48.316;15.174;2022-08-27T03:31:15;9.50;;;7.40;;
4553;SDS011;2289;48.316;15.174;2022-08-27T03:33:53;9.47;;;7.60;;
4553;SDS011;2289;48.316;15.174;2022-08-27T03:36:23;11.70;;;7.10;;
4553;SDS011;2289;48.316;15.174;2022-08-27T03:38:53;9.50;;;8.17;;
4553;SDS011;2289;48.316;15.174;2022-08-27T03:41:22;13.70;;;9.07;;
4553;SDS011;2289;48.316;15.174;2022-08-27T03:44:11;9.63;;;7.60;;
4553;SDS011;2289;48.316;15.174;2022-08-27T03:46:47;10.43;;;8.43;;
4553;SDS011;2289;48.316;15.174;2022-08-27T03:49:16;13.30;;;8.37;;
4553;SDS011;2289;48.316;15.174;2022-08-27T03:51:46;12.07;;;8.40;;
4553;SDS011;2289;48.316;15.174;2022-08-27T03:54:17;10.40;;;7.93;;
4553;SDS011;2289;48.316;15.174;2022-08-27T03:56:46;13.33;;;8.90;;
4553;SDS011;2289;48.316;15.174;2022-08-27T03:59:14;12.60;;;8.37;;
4553;SDS011;2289;48.316;15.174;2022-08-27T04:01:43;8.23;;;7.43;;
4553;SDS011;2289;48.316;15.174;2022-08-27T04:04:13;9.57;;;8.67;;
4553;SDS011;2289;48.316;15.174;2022-08-27T04:06:42;14.43;;;8.10;;
4553;SDS011;2289;48.316;15.174;2022-08-27T04:09:10;9.60;;;8.60;;
4553;SDS011;2289;48.316;15.174;2022-08-27T04:11:40;9.30;;;8.40;;
4553;SDS011;2289;48.316;15.174;2022-08-27T04:14:09;14.27;;;8.23;;
4553;SDS011;2289;48.316;15.174;2022-08-27T04:16:52;9.73;;;7.80;;
4553;SDS011;2289;48.316;15.174;2022-08-27T04:19:22;9.97;;;8.13;;
4553;SDS011;2289;48.316;15.174;2022-08-27T04:21:57;8.87;;;8.07;;
4553;SDS011;2289;48.316;15.174;2022-08-27T04:24:27;11.47;;;8.20;;
4553;SDS011;2289;48.316;15.174;2022-08-27T04:26:58;9.87;;;7.50;;
4553;SDS011;2289;48.316;15.174;2022-08-27T04:32:13;10.50;;;8.57;;
4553;SDS011;2289;48.316;15.174;2022-08-27T04:34:41;12.13;;;7.83;;
4553;SDS011;2289;48.316;15.174;2022-08-27T04:37:10;12.43;;;7.00;;
4553;SDS011;2289;48.316;15.174;2022-08-27T04:39:39;9.57;;;8.70;;
4553;SDS011;2289;48.316;15.174;2022-08-27T04:42:11;10.80;;;8.20;;
4553;SDS011;2289;48.316;15.174;2022-08-27T04:44:40;10.30;;;8.40;;
4553;SDS011;2289;48.316;15.174;2022-08-27T04:47:08;10.77;;;8.27;;
4553;SDS011;2289;48.316;15.174;2022-08-27T04:49:37;9.97;;;8.77;;
4553;SDS011;2289;48.316;15.174;2022-08-27T04:52:06;8.43;;;7.63;;
4553;SDS011;2289;48.316;15.174;2022-08-27T04:54:35;11.47;;;8.50;;
4553;SDS011;2289;48.316;15.174;2022-08-27T04:57:04;8.33;;;7.53;;
4553;SDS011;2289;48.316;15.174;2022-08-27T04:59:35;9.70;;;8.80;;
4553;SDS011;2289;48.316;15.174;2022-08-27T05:02:06;11.87;;;9.37;;
4553;SDS011;2289;48.316;15.174;2022-08-27T05:04:38;11.30;;;8.40;;
4553;SDS011;2289;48.316;15.174;2022-08-27T05:07:07;8.97;;;8.07;;
4553;SDS011;2289;48.316;15.174;2022-08-27T05:09:36;12.73;;;8.90;;
4553;SDS011;2289;48.316;15.174;2022-08-27T05:12:05;10.10;;;8.03;;
4553;SDS011;2289;48.316;15.174;2022-08-27T05:14:35;9.00;;;8.10;;
4553;SDS011;2289;48.316;15.174;2022-08-27T05:17:04;14.03;;;7.50;;
4553;SDS011;2289;48.316;15.174;2022-08-27T05:19:32;9.80;;;8.03;;
4553;SDS011;2289;48.316;15.174;2022-08-27T05:22:01;12.03;;;9.07;;
4553;SDS011;2289;48.316;15.174;2022-08-27T05:24:29;13.10;;;8.53;;
4553;SDS011;2289;48.316;15.174;2022-08-27T05:26:58;9.00;;;8.10;;
4553;SDS011;2289;48.316;15.174;2022-08-27T05:29:26;11.23;;;8.07;;
4553;SDS011;2289;48.316;15.174;2022-08-27T05:31:57;8.73;;;7.93;;
4553;SDS011;2289;48.316;15.174;2022-08-27T05:34:26;10.20;;;8.03;;
4553;SDS011;2289;48.316;15.174;2022-08-27T05:36:55;10.40;;;9.07;;
4553;SDS011;2289;48.316;15.174;2022-08-27T05:39:24;11.70;;;8.40;;
4553;SDS011;2289;48.316;15.174;2022-08-27T05:41:55;13.40;;;8.77;;
4553;SDS011;2289;48.316;15.174;2022-08-27T05:44:23;15.03;;;10.40;;
4553;SDS011;2289;48.316;15.174;2022-08-27T05:47:09;11.90;;;8.90;;
4553;SDS011;2289;48.316;15.174;2022-08-27T05:49:37;10.53;;;8.80;;
4553;SDS011;2289;48.316;15.174;2022-08-27T05:52:07;10.93;;;8.13;;
4553;SDS011;2289;48.316;15.174;2022-08-27T05:54:36;10.27;;;7.93;;
4553;SDS011;2289;48.316;15.174;2022-08-27T05:57:05;9.90;;;8.90;;
4553;SDS011;2289;48.316;15.174;2022-08-27T05:59:34;12.37;;;11.17;;
4553;SDS011;2289;48.316;15.174;2022-08-27T06:02:30;10.50;;;9.27;;
4553;SDS011;2289;48.316;15.174;2022-08-27T06:10:43;12.47;;;9.50;;
4553;SDS011;2289;48.316;15.174;2022-08-27T06:13:13;14.77;;;9.87;;
4553;SDS011;2289;48.316;15.174;2022-08-27T06:15:42;10.37;;;9.37;;
4553;SDS011;2289;48.316;15.174;2022-08-27T06:18:14;15.67;;;10.03;;
4553;SDS011;2289;48.316;15.174;2022-08-27T06:20:43;9.27;;;8.37;;
4553;SDS011;2289;48.316;15.174;2022-08-27T06:23:11;8.70;;;7.80;;
4553;SDS011;2289;48.316;15.174;2022-08-27T06:25:40;11.33;;;9.70;;
4553;SDS011;2289;48.316;15.174;2022-08-27T06:28:09;9.20;;;8.30;;
4553;SDS011;2289;48.316;15.174;2022-08-27T06:30:37;10.67;;;9.47;;
4553;SDS011;2289;48.316;15.174;2022-08-27T06:33:06;10.57;;;9.63;;
4553;SDS011;2289;48.316;15.174;2022-08-27T06:38:07;11.47;;;7.80;;
4553;SDS011;2289;48.316;15.174;2022-08-27T06:40:39;11.17;;;8.80;;
4553;SDS011;2289;48.316;15.174;2022-08-27T06:43:08;12.40;;;10.67;;
4553;SDS011;2289;48.316;15.174;2022-08-27T06:45:37;14.00;;;11.80;;
4553;SDS011;2289;48.316;15.174;2022-08-27T06:48:06;13.80;;;11.90;;
4553;SDS011;2289;48.316;15.174;2022-08-27T06:50:37;13.90;;;11.60;;
4553;SDS011;2289;48.316;15.174;2022-08-27T06:53:07;14.30;;;12.80;;
4553;SDS011;2289;48.316;15.174;2022-08-27T06:55:39;14.17;;;10.97;;
4553;SDS011;2289;48.316;15.174;2022-08-27T06:58:08;17.43;;;11.97;;
4553;SDS011;2289;48.316;15.174;2022-08-27T07:00:38;14.73;;;11.27;;
4553;SDS011;2289;48.316;15.174;2022-08-27T07:03:07;13.73;;;10.00;;
4553;SDS011;2289;48.316;15.174;2022-08-27T07:05:37;15.07;;;12.03;;
4553;SDS011;2289;48.316;15.174;2022-08-27T07:08:26;11.83;;;9.80;;
4553;SDS011;2289;48.316;15.174;2022-08-27T07:10:54;22.43;;;12.70;;
4553;SDS011;2289;48.316;15.174;2022-08-27T07:13:23;13.80;;;11.07;;
4553;SDS011;2289;48.316;15.174;2022-08-27T07:15:52;17.60;;;10.83;;
4553;SDS011;2289;48.316;15.174;2022-08-27T07:18:24;11.47;;;10.47;;
4553;SDS011;2289;48.316;15.174;2022-08-27T07:20:55;12.27;;;11.03;;
4553;SDS011;2289;48.316;15.174;2022-08-27T07:23:23;17.47;;;11.70;;
4553;SDS011;2289;48.316;15.174;2022-08-27T07:25:53;24.93;;;10.73;;
4553;SDS011;2289;48.316;15.174;2022-08-27T07:28:22;13.80;;;10.77;;
4553;SDS011;2289;48.316;15.174;2022-08-27T07:30:50;14.97;;;13.03;;
4553;SDS011;2289;48.316;15.174;2022-08-27T07:33:19;14.47;;;12.40;;
4553;SDS011;2289;48.316;15.174;2022-08-27T07:35:48;14.57;;;12.90;;
4553;SDS011;2289;48.316;15.174;2022-08-27T07:38:17;15.80;;;13.67;;
4553;SDS011;2289;48.316;15.174;2022-08-27T07:40:56;17.33;;;14.73;;
4553;SDS011;2289;48.316;15.174;2022-08-27T07:43:25;19.17;;;15.97;;
4553;SDS011;2289;48.316;15.174;2022-08-27T07:46:11;22.87;;;15.77;;
4553;SDS011;2289;48.316;15.174;2022-08-27T07:48:40;22.57;;;17.47;;
4553;SDS011;2289;48.316;15.174;2022-08-27T07:51:11;19.00;;;16.57;;
4553;SDS011;2289;48.316;15.174;2022-08-27T07:53:43;19.17;;;17.00;;
4553;SDS011;2289;48.316;15.174;2022-08-27T07:56:13;27.00;;;17.90;;
4553;SDS011;2289;48.316;15.174;2022-08-27T07:58:42;20.30;;;17.70;;
4553;SDS011;2289;48.316;15.174;2022-08-27T08:01:11;22.87;;;18.57;;
4553;SDS011;2289;48.316;15.174;2022-08-27T08:03:40;26.57;;;19.00;;
4553;SDS011;2289;48.316;15.174;2022-08-27T08:06:10;25.53;;;17.90;;
4553;SDS011;2289;48.316;15.174;2022-08-27T08:08:41;19.50;;;15.23;;
4553;SDS011;2289;48.316;15.174;2022-08-27T08:11:14;19.70;;;14.80;;
4553;SDS011;2289;48.316;15.174;2022-08-27T08:13:45;21.30;;;16.47;;
4553;SDS011;2289;48.316;15.174;2022-08-27T08:16:15;24.53;;;16.30;;
4553;SDS011;2289;48.316;15.174;2022-08-27T08:18:45;21.37;;;17.67;;
4553;SDS011;2289;48.316;15.174;2022-08-27T08:21:15;24.70;;;16.03;;
4553;SDS011;2289;48.316;15.174;2022-08-27T08:23:45;17.53;;;14.97;;
4553;SDS011;2289;48.316;15.174;2022-08-27T08:26:20;16.60;;;14.63;;
4553;SDS011;2289;48.316;15.174;2022-08-27T08:28:52;18.80;;;14.57;;
4553;SDS011;2289;48.316;15.174;2022-08-27T08:31:23;18.27;;;15.30;;
4553;SDS011;2289;48.316;15.174;2022-08-27T08:33:55;20.80;;;14.77;;
4553;SDS011;2289;48.316;15.174;2022-08-27T08:36:25;16.40;;;14.20;;
4553;SDS011;2289;48.316;15.174;2022-08-27T08:38:55;18.97;;;14.20;;
4553;SDS011;2289;48.316;15.174;2022-08-27T08:41:31;20.03;;;14.13;;
4553;SDS011;2289;48.316;15.174;2022-08-27T08:44:07;16.53;;;13.17;;
4553;SDS011;2289;48.316;15.174;2022-08-27T08:46:43;16.80;;;11.80;;
4553;SDS011;2289;48.316;15.174;2022-08-27T08:49:16;15.73;;;13.20;;
4553;SDS011;2289;48.316;15.174;2022-08-27T08:51:53;13.20;;;11.30;;
4553;SDS011;2289;48.316;15.174;2022-08-27T08:54:23;16.73;;;11.47;;
4553;SDS011;2289;48.316;15.174;2022-08-27T08:56:58;14.50;;;12.27;;
4553;SDS011;2289;48.316;15.174;2022-08-27T08:59:30;13.20;;;11.63;;
4553;SDS011;2289;48.316;15.174;2022-08-27T09:02:01;15.63;;;12.97;;
4553;SDS011;2289;48.316;15.174;2022-08-27T09:04:36;16.60;;;11.07;;
4553;SDS011;2289;48.316;15.174;2022-08-27T09:07:06;12.00;;;10.50;;
4553;SDS011;2289;48.316;15.174;2022-08-27T09:09:39;11.47;;;10.27;;
4553;SDS011;2289;48.316;15.174;2022-08-27T09:12:18;16.40;;;10.60;;
4553;SDS011;2289;48.316;15.174;2022-08-27T09:14:52;11.77;;;9.80;;
4553;SDS011;2289;48.316;15.174;2022-08-27T09:17:26;11.80;;;10.60;;
4553;SDS011;2289;48.316;15.174;2022-08-27T09:19:56;12.47;;;10.13;;
4553;SDS011;2289;48.316;15.174;2022-08-27T09:22:30;11.63;;;10.40;;
4553;SDS011;2289;48.316;15.174;2022-08-27T09:25:06;12.90;;;11.53;;
4553;SDS011;2289;48.316;15.174;2022-08-27T09:27:40;13.10;;;10.20;;
4553;SDS011;2289;48.316;15.174;2022-08-27T09:30:15;12.13;;;10.83;;
4553;SDS011;2289;48.316;15.174;2022-08-27T09:32:51;16.63;;;14.10;;
4553;SDS011;2289;48.316;15.174;2022-08-27T09:35:22;12.17;;;10.73;;
4553;SDS011;2289;48.316;15.174;2022-08-27T09:37:53;16.70;;;11.70;;
4553;SDS011;2289;48.316;15.174;2022-08-27T09:40:25;17.63;;;11.80;;
4553;SDS011;2289;48.316;15.174;2022-08-27T09:43:06;12.63;;;11.27;;
4553;SDS011;2289;48.316;15.174;2022-08-27T09:45:35;12.60;;;11.40;;
4553;SDS011;2289;48.316;15.174;2022-08-27T09:48:05;17.83;;;12.30;;
4553;SDS011;2289;48.316;15.174;2022-08-27T09:50:35;13.53;;;12.23;;
4553;SDS011;2289;48.316;15.174;2022-08-27T09:53:16;15.10;;;11.90;;
4553;SDS011;2289;48.316;15.174;2022-08-27T09:55:56;15.70;;;12.07;;
4553;SDS011;2289;48.316;15.174;2022-08-27T09:58:33;12.57;;;11.33;;
4553;SDS011;2289;48.316;15.174;2022-08-27T10:01:15;11.23;;;10.13;;
4553;SDS011;2289;48.316;15.174;2022-08-27T10:03:48;10.80;;;9.90;;
4553;SDS011;2289;48.316;15.174;2022-08-27T10:06:25;11.03;;;9.80;;
4553;SDS011;2289;48.316;15.174;2022-08-27T10:09:33;11.57;;;10.30;;
4553;SDS011;2289;48.316;15.174;2022-08-27T10:12:40;11.90;;;10.37;;
4553;SDS011;2289;48.316;15.174;2022-08-27T10:15:19;13.30;;;10.37;;
4553;SDS011;2289;48.316;15.174;2022-08-27T10:17:57;11.77;;;10.67;;
4553;SDS011;2289;48.316;15.174;2022-08-27T10:20:38;12.87;;;9.53;;
4553;SDS011;2289;48.316;15.174;2022-08-27T10:23:18;14.30;;;9.70;;
4553;SDS011;2289;48.316;15.174;2022-08-27T10:25:53;9.70;;;8.70;;
4553;SDS011;2289;48.316;15.174;2022-08-27T10:28:28;10.70;;;9.70;;
4553;SDS011;2289;48.316;15.174;2022-08-27T10:33:59;10.30;;;8.50;;
4553;SDS011;2289;48.316;15.174;2022-08-27T10:36:36;11.97;;;7.73;;
4553;SDS011;2289;48.316;15.174;2022-08-27T10:39:14;8.73;;;7.83;;
4553;SDS011;2289;48.316;15.174;2022-08-27T10:41:50;8.60;;;7.60;;
4553;SDS011;2289;48.316;15.174;2022-08-27T10:44:32;8.17;;;7.20;;
4553;SDS011;2289;48.316;15.174;2022-08-27T10:47:12;9.07;;;7.50;;
4553;SDS011;2289;48.316;15.174;2022-08-27T10:49:50;7.73;;;6.70;;
4553;SDS011;2289;48.316;15.174;2022-08-27T10:52:37;8.23;;;7.10;;
4553;SDS011;2289;48.316;15.174;2022-08-27T10:55:11;10.20;;;7.73;;
4553;SDS011;2289;48.316;15.174;2022-08-27T10:57:52;10.33;;;7.40;;
4553;SDS011;2289;48.316;15.174;2022-08-27T11:00:30;9.10;;;7.60;;
4553;SDS011;2289;48.316;15.174;2022-08-27T11:03:09;8.87;;;7.70;;
4553;SDS011;2289;48.316;15.174;2022-08-27T11:05:41;8.43;;;7.57;;
4553;SDS011;2289;48.316;15.174;2022-08-27T11:08:18;7.83;;;6.77;;
4553;SDS011;2289;48.316;15.174;2022-08-27T11:10:50;9.67;;;7.87;;
4553;SDS011;2289;48.316;15.174;2022-08-27T11:13:25;9.37;;;6.90;;
4553;SDS011;2289;48.316;15.174;2022-08-27T11:15:59;10.30;;;7.13;;
4553;SDS011;2289;48.316;15.174;2022-08-27T11:18:34;9.60;;;7.00;;
4553;SDS011;2289;48.316;15.174;2022-08-27T11:21:11;7.47;;;6.63;;
4553;SDS011;2289;48.316;15.174;2022-08-27T11:23:48;8.60;;;7.80;;
4553;SDS011;2289;48.316;15.174;2022-08-27T11:26:22;8.73;;;6.70;;
4553;SDS011;2289;48.316;15.174;2022-08-27T11:28:54;9.47;;;8.23;;
4553;SDS011;2289;48.316;15.174;2022-08-27T11:31:30;11.90;;;6.70;;
4553;SDS011;2289;48.316;15.174;2022-08-27T11:34:04;7.17;;;6.57;;
4553;SDS011;2289;48.316;15.174;2022-08-27T11:36:46;7.80;;;7.10;;
4553;SDS011;2289;48.316;15.174;2022-08-27T11:42:33;8.83;;;6.90;;
4553;SDS011;2289;48.316;15.174;2022-08-27T11:45:03;8.10;;;7.40;;
4553;SDS011;2289;48.316;15.174;2022-08-27T11:47:34;8.33;;;6.37;;
4553;SDS011;2289;48.316;15.174;2022-08-27T11:50:05;9.30;;;7.10;;
4553;SDS011;2289;48.316;15.174;2022-08-27T11:52:36;7.70;;;6.90;;
4553;SDS011;2289;48.316;15.174;2022-08-27T11:55:11;9.83;;;6.40;;
4553;SDS011;2289;48.316;15.174;2022-08-27T11:57:42;7.63;;;6.43;;
4553;SDS011;2289;48.316;15.174;2022-08-27T12:00:15;7.53;;;6.83;;
4553;SDS011;2289;48.316;15.174;2022-08-27T12:02:55;11.53;;;6.50;;
4553;SDS011;2289;48.316;15.174;2022-08-27T12:05:33;9.07;;;6.27;;
4553;SDS011;2289;48.316;15.174;2022-08-27T12:08:16;10.67;;;6.80;;
4553;SDS011;2289;48.316;15.174;2022-08-27T12:11:00;8.13;;;6.70;;
4553;SDS011;2289;48.316;15.174;2022-08-27T12:13:36;8.67;;;6.27;;
4553;SDS011;2289;48.316;15.174;2022-08-27T12:16:18;11.67;;;7.00;;
4553;SDS011;2289;48.316;15.174;2022-08-27T12:19:05;8.37;;;6.70;;
4553;SDS011;2289;48.316;15.174;2022-08-27T12:21:46;10.73;;;7.07;;
4553;SDS011;2289;48.316;15.174;2022-08-27T12:27:28;7.77;;;6.97;;
4553;SDS011;2289;48.316;15.174;2022-08-27T12:30:06;6.67;;;5.93;;
4553;SDS011;2289;48.316;15.174;2022-08-27T12:32:48;6.47;;;5.90;;
4553;SDS011;2289;48.316;15.174;2022-08-27T12:35:20;7.60;;;6.90;;
4553;SDS011;2289;48.316;15.174;2022-08-27T12:37:50;8.00;;;5.97;;
4553;SDS011;2289;48.316;15.174;2022-08-27T12:40:23;7.90;;;7.10;;
4553;SDS011;2289;48.316;15.174;2022-08-27T12:43:04;7.80;;;6.60;;
4553;SDS011;2289;48.316;15.174;2022-08-27T12:45:41;8.70;;;7.33;;
4553;SDS011;2289;48.316;15.174;2022-08-27T12:48:36;6.70;;;6.10;;
4553;SDS011;2289;48.316;15.174;2022-08-27T12:51:07;6.87;;;6.27;;
4553;SDS011;2289;48.316;15.174;2022-08-27T12:53:40;8.00;;;6.73;;
4553;SDS011;2289;48.316;15.174;2022-08-27T12:59:40;7.30;;;6.60;;
4553;SDS011;2289;48.316;15.174;2022-08-27T13:02:36;10.73;;;6.90;;
4553;SDS011;2289;48.316;15.174;2022-08-27T13:05:34;9.40;;;7.10;;
4553;SDS011;2289;48.316;15.174;2022-08-27T13:08:15;6.43;;;5.93;;
4553;SDS011;2289;48.316;15.174;2022-08-27T13:10:45;9.30;;;7.07;;
4553;SDS011;2289;48.316;15.174;2022-08-27T13:13:16;9.13;;;6.07;;
4553;SDS011;2289;48.316;15.174;2022-08-27T13:15:48;7.30;;;6.63;;
4553;SDS011;2289;48.316;15.174;2022-08-27T13:18:18;7.80;;;6.70;;
4553;SDS011;2289;48.316;15.174;2022-08-27T13:20:48;8.50;;;7.70;;
4553;SDS011;2289;48.316;15.174;2022-08-27T13:23:20;8.30;;;7.50;;
4553;SDS011;2289;48.316;15.174;2022-08-27T13:25:54;7.63;;;6.93;;
4553;SDS011;2289;48.316;15.174;2022-08-27T13:28:32;8.53;;;7.70;;
4553;SDS011;2289;48.316;15.174;2022-08-27T13:31:11;7.43;;;6.83;;
4553;SDS011;2289;48.316;15.174;2022-08-27T13:33:39;8.20;;;6.77;;
4553;SDS011;2289;48.316;15.174;2022-08-27T13:36:09;7.63;;;6.93;;
4553;SDS011;2289;48.316;15.174;2022-08-27T13:38:39;14.70;;;8.10;;
4553;SDS011;2289;48.316;15.174;2022-08-27T13:41:17;8.80;;;7.90;;
4553;SDS011;2289;48.316;15.174;2022-08-27T13:43:52;8.23;;;7.53;;
4553;SDS011;2289;48.316;15.174;2022-08-27T13:46:27;10.17;;;7.47;;
4553;SDS011;2289;48.316;15.174;2022-08-27T13:48:57;9.30;;;6.97;;
4553;SDS011;2289;48.316;15.174;2022-08-27T13:51:27;7.33;;;6.73;;
4553;SDS011;2289;48.316;15.174;2022-08-27T13:53:57;7.73;;;6.83;;
4553;SDS011;2289;48.316;15.174;2022-08-27T13:56:56;7.97;;;6.67;;
4553;SDS011;2289;48.316;15.174;2022-08-27T13:59:34;8.97;;;7.60;;
4553;SDS011;2289;48.316;15.174;2022-08-27T14:02:20;7.90;;;6.70;;
4553;SDS011;2289;48.316;15.174;2022-08-27T14:05:08;9.37;;;6.90;;
4553;SDS011;2289;48.316;15.174;2022-08-27T14:07:41;8.70;;;7.87;;
4553;SDS011;2289;48.316;15.174;2022-08-27T14:10:30;7.73;;;7.03;;
4553;SDS011;2289;48.316;15.174;2022-08-27T14:13:00;13.30;;;7.27;;
4553;SDS011;2289;48.316;15.174;2022-08-27T14:15:32;8.07;;;7.20;;
4553;SDS011;2289;48.316;15.174;2022-08-27T14:18:06;11.80;;;7.60;;
4553;SDS011;2289;48.316;15.174;2022-08-27T14:21:02;8.87;;;6.40;;
4553;SDS011;2289;48.316;15.174;2022-08-27T14:23:31;9.77;;;7.13;;
4553;SDS011;2289;48.316;15.174;2022-08-27T14:26:01;7.00;;;6.47;;
4553;SDS011;2289;48.316;15.174;2022-08-27T14:28:34;6.97;;;6.27;;
4553;SDS011;2289;48.316;15.174;2022-08-27T14:31:03;7.10;;;6.40;;
4553;SDS011;2289;48.316;15.174;2022-08-27T14:33:34;9.20;;;7.30;;
4553;SDS011;2289;48.316;15.174;2022-08-27T14:36:02;6.93;;;6.30;;
4553;SDS011;2289;48.316;15.174;2022-08-27T14:38:31;7.30;;;6.03;;
4553;SDS011;2289;48.316;15.174;2022-08-27T14:41:02;6.50;;;5.90;;
4553;SDS011;2289;48.316;15.174;2022-08-27T14:43:32;7.50;;;6.33;;
4553;SDS011;2289;48.316;15.174;2022-08-27T14:46:01;7.07;;;6.37;;
4553;SDS011;2289;48.316;15.174;2022-08-27T14:48:36;7.40;;;6.63;;
4553;SDS011;2289;48.316;15.174;2022-08-27T14:51:19;9.30;;;7.47;;
4553;SDS011;2289;48.316;15.174;2022-08-27T14:53:50;7.93;;;6.80;;
4553;SDS011;2289;48.316;15.174;2022-08-27T14:56:19;10.63;;;6.57;;
4553;SDS011;2289;48.316;15.174;2022-08-27T14:58:49;6.63;;;6.03;;
4553;SDS011;2289;48.316;15.174;2022-08-27T15:01:20;9.00;;;5.83;;
4553;SDS011;2289;48.316;15.174;2022-08-27T15:03:52;7.10;;;6.50;;
4553;SDS011;2289;48.316;15.174;2022-08-27T15:06:21;10.10;;;7.10;;
4553;SDS011;2289;48.316;15.174;2022-08-27T15:08:52;7.90;;;7.20;;
4553;SDS011;2289;48.316;15.174;2022-08-27T15:11:23;7.30;;;6.50;;
4553;SDS011;2289;48.316;15.174;2022-08-27T15:13:55;9.63;;;6.53;;
4553;SDS011;2289;48.316;15.174;2022-08-27T15:16:26;9.20;;;6.30;;
4553;SDS011;2289;48.316;15.174;2022-08-27T15:18:58;10.77;;;6.53;;
4553;SDS011;2289;48.316;15.174;2022-08-27T15:21:27;9.57;;;6.50;;
4553;SDS011;2289;48.316;15.174;2022-08-27T15:23:58;8.37;;;7.53;;
4553;SDS011;2289;48.316;15.174;2022-08-27T15:26:28;7.00;;;5.90;;
4553;SDS011;2289;48.316;15.174;2022-08-27T15:28:56;8.73;;;5.30;;
4553;SDS011;2289;48.316;15.174;2022-08-27T15:31:32;9.27;;;6.17;;
4553;SDS011;2289;48.316;15.174;2022-08-27T15:34:02;7.70;;;6.40;;
4553;SDS011;2289;48.316;15.174;2022-08-27T15:36:30;7.17;;;6.57;;
4553;SDS011;2289;48.316;15.174;2022-08-27T15:38:59;7.07;;;6.47;;
4553;SDS011;2289;48.316;15.174;2022-08-27T15:41:27;7.20;;;6.60;;
4553;SDS011;2289;48.316;15.174;2022-08-27T15:43:59;7.03;;;5.93;;
4553;SDS011;2289;48.316;15.174;2022-08-27T15:46:28;7.40;;;6.07;;